Time;durP1;ratioP1;P1;durP2;ratioP2;P2;SDS_P1;SDS_P2;PMS_P1;PMS_P2;Temp;Humidity;BMP_temperature;BMP_pressure;BME280_temperature;BME280_humidity;BME280_pressure;Samples;Min_cycle;Max_cycle;Signal;HPM_P1;HPM_P2
2021/06/26 00:00:51;;;;;;;5.43;5.03;;;;;;;21.75;44.98;101945.22;5029136;28;20240;-73
2021/06/26 00:03:23;;;;;;;5.43;5.00;;;;;;;21.72;44.97;101947.88;5028675;28;20709;-73
2021/06/26 00:05:49;;;;;;;5.03;4.60;;;;;;;21.74;45.34;101937.44;5028076;28;20609;-73
2021/06/26 00:08:14;;;;;;;5.50;5.10;;;;;;;21.70;44.70;101947.00;5029453;28;20225;-73
2021/06/26 00:10:42;;;;;;;5.37;4.67;;;;;;;21.67;45.18;101940.94;5028900;28;20890;-73
2021/06/26 00:13:07;;;;;;;5.33;4.93;;;;;;;21.66;44.92;101940.03;5029695;28;20178;-73
2021/06/26 00:15:33;;;;;;;5.00;4.60;;;;;;;21.63;44.93;101937.50;5029507;28;20183;-73
2021/06/26 00:17:58;;;;;;;5.53;5.13;;;;;;;21.62;44.93;101935.75;5029734;28;20186;-73
2021/06/26 00:20:23;;;;;;;5.23;4.83;;;;;;;21.58;45.02;101948.81;5029412;28;20194;-73
2021/06/26 00:22:49;;;;;;;5.10;4.70;;;;;;;21.58;45.08;101954.03;5029336;28;20186;-72
2021/06/26 00:25:14;;;;;;;5.40;5.00;;;;;;;21.54;45.28;101944.50;5029650;28;20182;-74
2021/06/26 00:27:39;;;;;;;5.20;4.80;;;;;;;21.55;45.04;101951.44;5028273;28;20182;-73
2021/06/26 00:30:06;;;;;;;4.80;4.40;;;;;;;21.53;45.04;101942.78;5029091;28;20551;-73
2021/06/26 00:32:31;;;;;;;5.13;4.63;;;;;;;21.50;45.19;101943.66;5029555;28;20197;-74
2021/06/26 00:34:56;;;;;;;6.33;4.63;;;;;;;21.49;44.94;101936.72;5027977;28;20715;-73
2021/06/26 00:37:21;;;;;;;5.13;4.70;;;;;;;21.48;45.17;101934.13;5028976;28;20178;-72
2021/06/26 00:39:47;;;;;;;5.47;5.07;;;;;;;21.42;45.23;101935.03;5028886;28;20679;-73
2021/06/26 00:42:12;;;;;;;4.80;4.50;;;;;;;21.42;45.26;101939.41;5029404;28;20186;-73
2021/06/26 00:44:37;;;;;;;5.30;4.90;;;;;;;21.36;45.14;101942.03;5030422;28;20174;-73
2021/06/26 00:47:10;;;;;;;5.27;4.70;;;;;;;21.36;45.37;101949.84;5032802;28;20174;-73
2021/06/26 00:49:36;;;;;;;4.90;4.50;;;;;;;21.32;45.29;101946.41;5032427;28;20220;-72
2021/06/26 00:52:01;;;;;;;5.27;4.87;;;;;;;21.28;45.94;101943.84;5030942;28;20214;-73
2021/06/26 00:54:26;;;;;;;5.40;4.97;;;;;;;21.27;45.49;101942.09;5032290;28;20663;-73
2021/06/26 00:56:51;;;;;;;5.00;4.60;;;;;;;21.23;45.72;101949.06;5032564;28;20273;-73
2021/06/26 00:59:17;;;;;;;4.73;4.43;;;;;;;21.24;45.55;101942.13;5032360;28;20706;-73
2021/06/26 01:01:42;;;;;;;4.87;4.47;;;;;;;21.22;45.83;101942.13;5032319;28;20195;-73
2021/06/26 01:04:07;;;;;;;5.10;4.70;;;;;;;21.20;45.67;101940.41;5032549;28;20166;-73
2021/06/26 01:06:33;;;;;;;5.00;4.50;;;;;;;21.17;45.83;101943.03;5032267;28;20188;-73
2021/06/26 01:08:58;;;;;;;5.53;5.13;;;;;;;21.13;45.60;101946.53;5030756;28;20197;-73
2021/06/26 01:11:23;;;;;;;4.37;3.93;;;;;;;21.14;45.68;101956.94;5032458;28;20393;-73
2021/06/26 01:13:49;;;;;;;5.33;4.93;;;;;;;21.11;45.68;101949.16;5031214;28;20205;-73
2021/06/26 01:16:14;;;;;;;4.93;4.43;;;;;;;21.06;45.28;101961.31;5032209;28;20201;-73
2021/06/26 01:21:10;;;;;;;4.67;4.30;;;;;;;21.05;45.26;101961.34;5053289;23;20231;-71
2021/06/26 01:23:44;;;;;;;4.67;4.27;;;;;;;21.07;45.70;101959.59;5012808;28;20187;-72
2021/06/26 01:26:10;;;;;;;5.00;4.60;;;;;;;21.02;45.43;101951.81;5012942;28;20198;-72
2021/06/26 01:28:35;;;;;;;4.40;4.10;;;;;;;21.01;45.34;101944.84;5013082;28;20178;-70
2021/06/26 01:31:00;;;;;;;4.57;4.27;;;;;;;21.04;45.65;101954.38;5031193;28;20210;-70
2021/06/26 01:33:25;;;;;;;4.30;4.00;;;;;;;20.99;45.29;101949.22;5032777;28;20182;-73
2021/06/26 01:35:51;;;;;;;4.53;4.23;;;;;;;21.01;45.85;101952.66;5032438;28;20569;-70
2021/06/26 01:38:16;;;;;;;4.70;4.30;;;;;;;20.98;45.75;101941.41;5048338;28;20192;-72
2021/06/26 01:40:41;;;;;;;4.73;4.33;;;;;;;20.96;46.11;101945.78;5049087;28;20737;-69
2021/06/26 01:43:11;;;;;;;5.07;4.63;;;;;;;20.94;45.69;101947.50;5032847;28;20236;-72
2021/06/26 01:45:36;;;;;;;4.30;4.00;;;;;;;20.92;45.96;101950.09;5031537;28;20671;-72
2021/06/26 01:48:02;;;;;;;4.33;3.93;;;;;;;20.87;45.88;101946.63;5032554;28;20261;-72
2021/06/26 01:50:28;;;;;;;4.80;4.40;;;;;;;20.89;45.75;101946.63;5030598;28;20289;-72
2021/06/26 01:52:54;;;;;;;4.50;4.10;;;;;;;20.84;45.68;101943.19;5031562;28;20214;-70
2021/06/26 01:55:20;;;;;;;4.20;3.90;;;;;;;20.80;46.06;101934.53;5032585;28;20214;-72
2021/06/26 01:57:47;;;;;;;4.47;4.17;;;;;;;20.79;45.70;101931.94;5032317;28;20554;-71
2021/06/26 02:00:14;;;;;;;4.43;4.13;;;;;;;20.77;45.73;101925.88;5031876;28;20202;-72
2021/06/26 02:02:39;;;;;;;4.60;4.20;;;;;;;20.78;45.50;101932.81;5030692;28;20704;-72
2021/06/26 02:05:07;;;;;;;4.47;3.87;;;;;;;20.76;46.01;101938.03;5032045;28;20186;-72
2021/06/26 02:07:32;;;;;;;5.03;4.53;;;;;;;20.73;45.10;101939.78;5032513;28;20186;-72
2021/06/26 02:09:59;;;;;;;4.20;3.90;;;;;;;20.67;45.79;101943.25;5032197;28;20256;-71
2021/06/26 02:12:24;;;;;;;4.83;4.37;;;;;;;20.69;45.68;101936.31;5031982;28;20554;-72
2021/06/26 02:14:52;;;;;;;4.30;3.90;;;;;;;20.69;45.80;101945.88;5032579;28;20183;-70
2021/06/26 02:17:18;;;;;;;4.20;3.80;;;;;;;20.65;45.69;101944.16;5032108;28;20190;-73
2021/06/26 02:19:43;;;;;;;3.73;3.40;;;;;;;20.64;45.79;101943.25;5032054;28;20213;-71
2021/06/26 02:22:08;;;;;;;4.10;3.80;;;;;;;20.62;45.86;101936.34;5032465;28;20182;-72
2021/06/26 02:24:34;;;;;;;4.20;3.90;;;;;;;20.60;45.63;101936.34;5032701;28;20217;-73
2021/06/26 02:26:59;;;;;;;3.83;3.53;;;;;;;20.59;45.74;101936.38;5031000;28;20672;-72
2021/06/26 02:29:24;;;;;;;3.83;3.53;;;;;;;20.58;45.78;101934.59;5031942;28;20209;-73
2021/06/26 02:31:49;;;;;;;3.93;3.63;;;;;;;20.58;46.15;101934.59;5031746;28;20340;-75
2021/06/26 02:34:15;;;;;;;4.53;4.13;;;;;;;20.58;46.02;101932.88;5032031;28;20639;-72
2021/06/26 02:36:41;;;;;;;4.40;4.10;;;;;;;20.57;46.15;101931.16;5032017;28;20308;-74
2021/06/26 02:39:06;;;;;;;4.00;3.70;;;;;;;20.57;46.06;101932.88;5029859;28;20293;-73
2021/06/26 02:41:32;;;;;;;4.30;3.90;;;;;;;20.56;46.05;101938.97;5030901;28;20276;-74
2021/06/26 02:43:57;;;;;;;3.80;3.50;;;;;;;20.53;46.34;101938.97;5030146;28;20186;-74
2021/06/26 02:46:22;;;;;;;4.23;3.83;;;;;;;20.51;46.40;101936.41;5031179;28;20190;-73
2021/06/26 02:48:47;;;;;;;3.83;3.53;;;;;;;20.52;46.30;101945.06;5031563;28;20190;-72
2021/06/26 02:51:13;;;;;;;4.03;3.73;;;;;;;20.51;46.46;101943.34;5030111;28;20190;-70
2021/06/26 02:53:38;;;;;;;4.60;4.20;;;;;;;20.52;46.66;101950.25;5031027;28;20639;-75
2021/06/26 02:56:04;;;;;;;4.60;4.20;;;;;;;20.51;46.61;101952.03;5032917;28;20182;-73
2021/06/26 02:58:29;;;;;;;4.70;4.30;;;;;;;20.50;46.97;101952.88;5032117;28;20605;-70
2021/06/26 03:00:54;;;;;;;4.33;4.03;;;;;;;20.50;47.03;101946.81;5031438;28;20667;-73
2021/06/26 03:03:20;;;;;;;4.40;4.10;;;;;;;20.50;46.95;101950.25;5031838;28;20214;-72
2021/06/26 03:05:45;;;;;;;4.37;3.93;;;;;;;20.49;47.12;101951.13;5031259;28;20668;-73
2021/06/26 03:08:10;;;;;;;4.80;4.40;;;;;;;20.48;46.92;101954.63;5030616;28;20248;-73
2021/06/26 03:10:36;;;;;;;4.67;4.27;;;;;;;20.50;47.18;101963.28;5031241;28;20206;-74
2021/06/26 03:13:01;;;;;;;4.93;4.27;;;;;;;20.48;47.29;101961.56;5029915;28;20566;-73
2021/06/26 03:15:26;;;;;;;4.50;4.10;;;;;;;20.52;47.29;101965.88;5031278;28;20182;-73
2021/06/26 03:17:52;;;;;;;4.43;4.03;;;;;;;20.64;46.85;101961.50;5030017;28;20683;-73
2021/06/26 03:20:17;;;;;;;4.53;4.13;;;;;;;20.73;46.67;101958.84;5028145;28;20242;-73
2021/06/26 03:22:42;;;;;;;4.40;4.00;;;;;;;20.81;46.54;101957.09;5030346;28;20795;-74
2021/06/26 03:25:09;;;;;;;3.47;3.27;;;;;;;20.87;46.30;101967.47;5030036;28;20184;-71
2021/06/26 03:27:36;;;;;;;4.27;3.83;;;;;;;20.90;45.83;101964.91;5048200;28;20182;-74
2021/06/26 03:30:01;;;;;;;3.63;3.33;;;;;;;20.95;45.96;101972.66;5040789;28;20199;-73
2021/06/26 03:32:26;;;;;;;3.73;3.43;;;;;;;20.97;46.02;101970.94;5030736;28;20669;-72
2021/06/26 03:34:51;;;;;;;3.50;3.30;;;;;;;21.00;45.72;101973.53;5028966;28;20193;-72
2021/06/26 03:37:17;;;;;;;3.73;3.43;;;;;;;21.04;45.76;101975.22;5030207;28;20197;-74
2021/06/26 03:39:42;;;;;;;3.13;2.93;;;;;;;21.06;45.75;101983.94;5028532;28;20213;-73
2021/06/26 03:42:09;;;;;;;3.90;3.60;;;;;;;21.09;46.25;101983.91;5029985;28;20186;-73
2021/06/26 03:44:34;;;;;;;4.43;3.37;;;;;;;21.10;46.03;101977.81;5030012;28;20179;-72
2021/06/26 03:46:59;;;;;;;3.50;3.20;;;;;;;21.12;45.62;101983.88;5028513;28;20209;-73
2021/06/26 03:49:25;;;;;;;3.33;3.13;;;;;;;21.14;45.95;101980.41;5029707;28;20209;-71
2021/06/26 03:51:50;;;;;;;3.33;3.00;;;;;;;21.16;46.05;101977.78;5028506;28;20659;-74
2021/06/26 03:54:15;;;;;;;3.10;2.90;;;;;;;21.18;45.83;101976.91;5030032;28;20185;-72
2021/06/26 03:56:40;;;;;;;3.23;3.03;;;;;;;21.20;45.82;101967.34;5028708;28;20237;-74
2021/06/26 03:59:06;;;;;;;3.43;3.23;;;;;;;21.22;45.96;101968.19;5029756;28;20210;-71
2021/06/26 04:01:31;;;;;;;3.27;2.97;;;;;;;21.24;45.95;101963.81;5029709;28;20206;-71
2021/06/26 04:03:56;;;;;;;3.07;2.87;;;;;;;21.25;45.48;101969.91;5029706;28;20195;-73
2021/06/26 04:06:22;;;;;;;3.67;3.37;;;;;;;21.27;46.07;101981.19;5029906;28;20191;-71
2021/06/26 04:08:47;;;;;;;3.37;3.17;;;;;;;21.29;45.70;101976.84;5029553;28;20186;-71
2021/06/26 04:11:12;;;;;;;2.83;2.63;;;;;;;21.30;45.99;101981.16;5029624;28;20238;-72
2021/06/26 04:13:37;;;;;;;3.23;3.03;;;;;;;21.33;46.12;101986.38;5028577;28;20182;-72
2021/06/26 04:16:04;;;;;;;3.20;3.00;;;;;;;21.33;45.70;101983.78;5029418;28;20565;-72
2021/06/26 04:18:29;;;;;;;3.47;3.20;;;;;;;21.36;45.77;101991.56;5029339;28;20202;-73
2021/06/26 04:20:55;;;;;;;3.27;3.07;;;;;;;21.36;45.83;101987.22;5032210;28;20245;-72
2021/06/26 04:23:20;;;;;;;3.13;2.93;;;;;;;21.37;45.75;101988.09;5033268;28;20269;-73
2021/06/26 04:25:48;;;;;;;3.43;3.00;;;;;;;21.40;45.65;101986.31;5033330;28;20182;-73
2021/06/26 04:28:13;;;;;;;2.83;2.60;;;;;;;21.42;45.81;101983.72;5033134;28;20229;-74
2021/06/26 04:30:38;;;;;;;2.80;2.60;;;;;;;21.43;46.00;101988.91;5032539;28;20687;-73
2021/06/26 04:33:04;;;;;;;2.93;2.73;;;;;;;21.44;45.82;101987.16;5032065;28;20218;-73
2021/06/26 04:35:30;;;;;;;2.87;2.67;;;;;;;21.47;45.73;101998.44;5033504;28;20631;-72
2021/06/26 04:37:56;;;;;;;3.23;3.03;;;;;;;21.52;45.89;101998.41;5032312;28;20185;-73
2021/06/26 04:40:22;;;;;;;3.10;2.90;;;;;;;21.55;45.83;102000.97;5032182;28;20198;-72
2021/06/26 04:42:47;;;;;;;3.60;3.03;;;;;;;21.62;46.21;101997.47;5033073;28;20182;-73
2021/06/26 04:45:14;;;;;;;3.20;2.90;;;;;;;21.64;45.64;102006.13;5034412;28;20257;-72
2021/06/26 04:47:42;;;;;;;2.60;2.40;;;;;;;21.65;45.71;102006.13;5033992;28;20179;-74
2021/06/26 04:50:09;;;;;;;3.40;2.90;;;;;;;21.72;46.38;102005.25;5033982;28;20241;-77
2021/06/26 04:52:35;;;;;;;2.80;2.60;;;;;;;21.86;45.77;102005.13;5017444;28;20182;-74
2021/06/26 04:55:02;;;;;;;5.72;3.53;;;;;;;22.25;45.20;102004.78;5032581;28;20429;-73
2021/06/26 04:57:28;;;;;;;3.20;2.90;;;;;;;22.39;45.03;102006.38;5033611;28;20277;-73
2021/06/26 04:59:53;;;;;;;3.10;2.90;;;;;;;22.28;45.35;102004.75;5033448;28;20204;-72
2021/06/26 05:02:18;;;;;;;3.30;3.00;;;;;;;22.10;45.58;102003.19;5030257;28;20174;-74
2021/06/26 05:04:44;;;;;;;3.40;2.60;;;;;;;21.99;45.90;102005.03;5032287;28;20317;-76
2021/06/26 05:07:09;;;;;;;3.70;2.63;;;;;;;21.93;46.42;102001.63;5030977;28;20174;-76
2021/06/26 05:09:34;;;;;;;3.33;3.03;;;;;;;21.90;46.75;102001.63;5032082;28;20217;-74
2021/06/26 05:11:59;;;;;;;3.00;2.80;;;;;;;21.89;46.23;102000.75;5032331;28;20191;-74
2021/06/26 05:14:25;;;;;;;3.23;2.90;;;;;;;21.87;46.57;101997.31;5031188;28;20186;-74
2021/06/26 05:16:50;;;;;;;5.97;4.00;;;;;;;21.88;46.27;101995.56;5033345;28;20193;-75
2021/06/26 05:19:15;;;;;;;6.33;3.87;;;;;;;21.89;46.59;102005.13;5051087;28;20209;-76
2021/06/26 05:21:40;;;;;;;9.23;4.43;;;;;;;21.90;46.44;102006.84;5043549;28;20380;-74
2021/06/26 05:24:06;;;;;;;8.57;4.20;;;;;;;21.90;46.66;102010.31;5032325;28;20667;-75
2021/06/26 05:26:31;;;;;;;9.73;4.33;;;;;;;21.93;46.92;102019.88;5031994;28;20178;-76
2021/06/26 05:28:57;;;;;;;11.13;4.50;;;;;;;21.93;47.20;102019.88;5030124;28;20566;-73
2021/06/26 05:31:22;;;;;;;13.33;4.83;;;;;;;21.97;47.51;102025.03;5029900;28;20198;-76
2021/06/26 05:33:48;;;;;;;7.37;3.70;;;;;;;21.98;47.72;102028.53;5031953;28;20698;-75
2021/06/26 05:36:13;;;;;;;11.50;4.67;;;;;;;21.99;47.90;102027.63;5030824;28;20174;-74
2021/06/26 05:38:39;;;;;;;8.73;4.90;;;;;;;22.00;47.76;102024.16;5030401;28;20178;-74
2021/06/26 05:41:04;;;;;;;8.70;4.50;;;;;;;22.01;48.26;102020.66;5031286;28;20277;-75
2021/06/26 05:43:29;;;;;;;8.73;4.37;;;;;;;22.03;48.19;102024.13;5031553;28;20179;-75
2021/06/26 05:45:55;;;;;;;7.17;4.10;;;;;;;22.03;48.11;102014.53;5031612;28;20213;-75
2021/06/26 05:48:20;;;;;;;7.47;4.27;;;;;;;22.05;48.04;102011.91;5029723;28;20201;-76
2021/06/26 05:50:46;;;;;;;6.00;4.43;;;;;;;22.06;47.83;102019.75;5030759;28;20237;-75
2021/06/26 05:53:11;;;;;;;8.73;4.87;;;;;;;22.06;48.14;102017.13;5031669;28;20218;-75
2021/06/26 05:55:36;;;;;;;6.87;4.10;;;;;;;22.06;48.57;102013.69;5029480;28;20182;-76
2021/06/26 05:58:02;;;;;;;7.73;4.53;;;;;;;22.08;48.56;102009.28;5031351;28;20686;-76
2021/06/26 06:00:32;;;;;;;8.13;4.70;;;;;;;22.08;48.71;102018.00;5030947;28;20667;-76
2021/06/26 06:02:58;;;;;;;5.30;4.27;;;;;;;22.11;48.65;102017.09;5031205;28;20652;-74
2021/06/26 06:05:23;;;;;;;7.10;4.53;;;;;;;22.12;48.84;102032.72;5031390;28;20198;-75
2021/06/26 06:07:48;;;;;;;6.27;4.70;;;;;;;22.14;48.50;102027.50;5030043;28;20269;-73
2021/06/26 06:10:16;;;;;;;5.27;4.00;;;;;;;22.15;48.58;102026.63;5031074;28;20194;-75
2021/06/26 06:12:42;;;;;;;6.13;4.70;;;;;;;22.17;48.54;102023.16;5031082;28;20187;-74
2021/06/26 06:15:10;;;;;;;4.97;4.47;;;;;;;22.19;48.58;102017.88;5030992;28;20183;-77
2021/06/26 06:17:35;;;;;;;4.93;4.23;;;;;;;22.20;48.73;102025.72;5030671;28;20186;-75
2021/06/26 06:20:04;;;;;;;4.47;4.07;;;;;;;22.21;48.68;102021.38;5030700;28;20221;-74
2021/06/26 06:22:30;;;;;;;4.93;4.30;;;;;;;22.21;48.46;102027.44;5030784;28;20210;-74
2021/06/26 06:24:55;;;;;;;8.27;4.47;;;;;;;22.21;48.42;102017.00;5030937;28;20179;-76
2021/06/26 06:27:20;;;;;;;7.57;5.17;;;;;;;22.19;48.89;102025.72;5030958;28;20182;-74
2021/06/26 06:29:46;;;;;;;5.37;4.83;;;;;;;22.20;48.65;102025.72;5030631;28;20206;-75
2021/06/26 06:32:11;;;;;;;4.63;4.23;;;;;;;22.23;48.53;102028.28;5030815;28;20194;-76
2021/06/26 06:34:36;;;;;;;4.97;4.30;;;;;;;22.26;48.79;102028.25;5029578;28;20193;-76
2021/06/26 06:37:02;;;;;;;5.23;4.73;;;;;;;22.27;48.52;102027.41;5029445;28;20709;-76
2021/06/26 06:39:27;;;;;;;5.37;4.10;;;;;;;22.29;48.37;102024.78;5030627;28;20207;-76
2021/06/26 06:41:53;;;;;;;4.57;4.17;;;;;;;22.33;48.56;102023.84;5029374;28;20605;-74
2021/06/26 06:44:18;;;;;;;4.57;4.17;;;;;;;22.38;48.51;102029.88;5029160;28;20182;-71
2021/06/26 06:46:43;;;;;;;4.43;3.77;;;;;;;22.38;47.84;102026.41;5028996;28;20258;-70
2021/06/26 06:49:09;;;;;;;4.77;4.20;;;;;;;22.38;48.24;102029.88;5030445;28;20191;-73
2021/06/26 06:51:36;;;;;;;4.63;4.23;;;;;;;22.40;48.39;102035.97;5030277;28;20206;-70
2021/06/26 06:54:01;;;;;;;4.40;4.00;;;;;;;22.42;48.08;102032.47;5030851;28;20656;-72
2021/06/26 06:56:26;;;;;;;4.47;4.07;;;;;;;22.46;47.93;102042.91;5030405;28;20209;-70
2021/06/26 06:58:51;;;;;;;4.53;4.10;;;;;;;22.47;47.73;102045.50;5030314;28;20820;-68
2021/06/26 07:01:17;;;;;;;4.30;3.90;;;;;;;22.50;48.12;102047.19;5030272;28;20229;-69
2021/06/26 07:03:42;;;;;;;4.40;4.00;;;;;;;22.51;47.99;102044.59;5030068;28;20685;-71
2021/06/26 07:06:08;;;;;;;3.80;3.50;;;;;;;22.53;47.65;102053.28;5030220;28;20272;-68
2021/06/26 07:08:33;;;;;;;4.53;4.17;;;;;;;22.54;47.65;102051.50;5030074;28;20182;-69
2021/06/26 07:10:58;;;;;;;4.40;4.00;;;;;;;22.57;47.74;102046.28;5030523;28;20243;-67
2021/06/26 07:13:24;;;;;;;4.30;3.90;;;;;;;22.60;47.37;102043.63;5036124;28;20301;-70
2021/06/26 07:15:50;;;;;;;4.07;3.70;;;;;;;22.63;47.48;102048.81;5038721;28;20260;-69
2021/06/26 07:18:15;;;;;;;4.00;3.70;;;;;;;22.63;47.16;102048.81;5030772;28;20702;-71
2021/06/26 07:20:40;;;;;;;4.87;4.13;;;;;;;22.66;47.12;102046.19;5030042;28;20290;-74
2021/06/26 07:23:06;;;;;;;4.30;3.80;;;;;;;22.67;47.06;102050.50;5029995;28;20535;-74
2021/06/26 07:25:31;;;;;;;5.27;4.77;;;;;;;22.66;47.55;102046.19;5030315;28;20186;-71
2021/06/26 07:27:57;;;;;;;6.50;4.40;;;;;;;22.66;47.17;102040.94;5030333;28;20194;-71
2021/06/26 07:30:22;;;;;;;4.47;4.07;;;;;;;22.65;47.67;102037.47;5030489;28;20777;-72
2021/06/26 07:32:48;;;;;;;6.80;4.57;;;;;;;22.68;47.73;102044.41;5030035;28;20236;-73
2021/06/26 07:35:14;;;;;;;5.00;4.60;;;;;;;22.66;47.52;102043.56;5030320;28;20266;-73
2021/06/26 07:37:40;;;;;;;4.57;4.17;;;;;;;22.68;47.30;102044.41;5030095;28;20179;-71
2021/06/26 07:40:06;;;;;;;4.37;4.03;;;;;;;22.69;47.18;102046.16;5028428;28;20690;-73
2021/06/26 07:42:31;;;;;;;5.80;4.83;;;;;;;22.68;47.31;102045.28;5031045;28;20597;-71
2021/06/26 07:44:57;;;;;;;4.57;4.03;;;;;;;22.71;47.38;102041.75;5030317;28;20224;-73
2021/06/26 07:47:22;;;;;;;3.60;3.30;;;;;;;22.72;47.13;102040.88;5030406;28;20189;-71
2021/06/26 07:49:47;;;;;;;5.30;3.97;;;;;;;22.73;47.58;102043.47;5029962;28;20210;-73
2021/06/26 07:52:12;;;;;;;4.80;3.97;;;;;;;22.75;47.06;102044.31;5030368;28;20229;-72
2021/06/26 07:54:37;;;;;;;5.17;3.87;;;;;;;22.77;47.02;102041.69;5030978;28;20175;-72
2021/06/26 07:57:03;;;;;;;4.37;3.97;;;;;;;22.78;46.91;102041.69;5033929;28;20628;-72
2021/06/26 07:59:28;;;;;;;3.80;3.50;;;;;;;22.79;46.92;102040.78;5033544;28;20202;-71
2021/06/26 08:01:54;;;;;;;4.37;3.97;;;;;;;22.79;47.12;102039.94;5032342;28;20182;-72
2021/06/26 08:04:19;;;;;;;3.80;3.50;;;;;;;22.79;47.13;102039.94;5034069;28;20186;-72
2021/06/26 08:06:45;;;;;;;4.23;3.93;;;;;;;22.79;47.33;102034.72;5034508;28;20177;-72
2021/06/26 08:09:10;;;;;;;4.10;3.80;;;;;;;22.81;46.83;102038.16;5033838;28;20794;-71
2021/06/26 08:11:35;;;;;;;4.27;3.87;;;;;;;22.81;46.68;102036.44;5034157;28;20671;-73
2021/06/26 08:14:00;;;;;;;3.73;3.43;;;;;;;22.83;47.40;102037.25;5034003;28;20238;-71
2021/06/26 08:16:26;;;;;;;4.30;3.90;;;;;;;22.88;46.78;102037.22;5033223;28;20182;-72
2021/06/26 08:18:52;;;;;;;4.10;3.50;;;;;;;22.89;46.83;102033.72;5033300;28;20265;-73
2021/06/26 08:21:20;;;;;;;4.63;3.87;;;;;;;22.92;47.08;102033.69;5034521;28;20178;-72
2021/06/26 08:23:45;;;;;;;4.13;3.73;;;;;;;22.94;46.49;102035.41;5035333;28;20202;-73
2021/06/26 08:26:11;;;;;;;5.17;4.00;;;;;;;22.94;46.76;102031.91;5034556;28;20187;-73
2021/06/26 08:28:36;;;;;;;4.33;3.93;;;;;;;22.95;46.66;102028.41;5034937;28;20209;-73
2021/06/26 08:31:02;;;;;;;5.63;4.70;;;;;;;22.95;46.82;102031.91;5035356;28;20308;-73
2021/06/26 08:33:27;;;;;;;7.33;3.73;;;;;;;22.98;46.25;102025.78;5034731;28;20182;-73
2021/06/26 08:35:52;;;;;;;4.63;4.17;;;;;;;22.99;46.58;102038.81;5033589;28;20213;-72
2021/06/26 08:38:18;;;;;;;4.93;4.50;;;;;;;23.02;46.54;102035.31;5033685;28;20190;-73
2021/06/26 08:40:43;;;;;;;6.00;5.00;;;;;;;23.02;46.54;102028.31;5032716;28;20213;-73
2021/06/26 08:43:08;;;;;;;5.57;4.27;;;;;;;23.02;46.42;102024.84;5033161;28;20174;-74
2021/06/26 08:45:36;;;;;;;5.63;4.70;;;;;;;23.01;46.20;102023.97;5034059;28;20232;-73
2021/06/26 08:48:01;;;;;;;4.60;4.20;;;;;;;23.27;45.98;102016.69;5021635;28;20234;-70
2021/06/26 08:50:28;;;;;;;4.93;4.50;;;;;;;23.71;45.58;102013.44;5036676;28;20218;-72
2021/06/26 08:52:53;;;;;;;5.60;5.03;;;;;;;23.66;45.19;102020.50;5034504;28;20179;-70
2021/06/26 08:55:19;;;;;;;5.30;4.87;;;;;;;23.54;45.89;102012.81;5036430;28;20174;-72
2021/06/26 08:57:46;;;;;;;4.70;4.30;;;;;;;23.44;46.30;102009.47;5037918;28;20183;-71
2021/06/26 09:00:13;;;;;;;6.00;5.50;;;;;;;23.40;46.10;102006.94;5035268;28;20202;-72
2021/06/26 09:02:38;;;;;;;6.07;5.47;;;;;;;23.44;46.35;102012.06;5036261;28;20191;-70
2021/06/26 09:05:04;;;;;;;6.53;5.67;;;;;;;23.39;46.56;102013.91;5037702;28;20183;-71
2021/06/26 09:07:34;;;;;;;6.43;5.30;;;;;;;23.42;47.29;102026.06;5038101;28;20205;-69
2021/06/26 09:10:14;;;;;;;4.93;4.50;;;;;;;23.43;46.80;102022.59;5048392;28;20186;-73
2021/06/26 09:12:40;;;;;;;6.10;5.50;;;;;;;23.37;46.73;102013.06;5044755;28;20200;-71
2021/06/26 09:15:07;;;;;;;6.97;6.27;;;;;;;23.35;46.78;102014.84;5037144;28;20175;-71
2021/06/26 09:17:34;;;;;;;6.87;6.17;;;;;;;23.33;46.67;102024.44;5035388;28;20182;-70
2021/06/26 09:20:05;;;;;;;6.00;5.50;;;;;;;23.36;46.83;102021.81;5035828;28;20281;-70
2021/06/26 09:22:42;;;;;;;6.40;5.80;;;;;;;23.40;46.55;102020.00;5036220;28;20178;-69
2021/06/26 09:25:34;;;;;;;6.77;6.10;;;;;;;23.48;46.48;102016.38;5035803;28;20205;-71
2021/06/26 09:28:02;;;;;;;8.00;7.13;;;;;;;23.50;46.43;102019.84;5035540;28;20169;-70
2021/06/26 09:30:39;;;;;;;7.83;7.03;;;;;;;23.51;46.32;102021.56;5047496;28;20202;-70
2021/06/26 09:33:21;;;;;;;8.57;7.60;;;;;;;23.50;46.22;102011.13;5052048;28;20635;-69
2021/06/26 09:36:02;;;;;;;8.30;7.50;;;;;;;23.49;46.45;102017.25;5053018;28;20176;-70
2021/06/26 09:38:28;;;;;;;8.30;7.50;;;;;;;23.48;46.46;102018.16;5052332;28;20162;-70
2021/06/26 09:40:53;;;;;;;8.50;7.00;;;;;;;23.50;46.50;102027.69;5052027;28;20335;-70
2021/06/26 09:43:30;;;;;;;7.93;7.00;;;;;;;23.51;46.55;102020.69;5042953;28;20244;-72
2021/06/26 09:46:13;;;;;;;11.85;8.80;;;;;;;23.82;45.72;102024.59;5032524;28;20835;-77
2021/06/26 09:48:57;;;;;;;9.02;7.72;;;;;;;24.32;45.40;102016.78;5031539;28;20440;-75
2021/06/26 09:51:31;;;;;;;9.43;6.87;;;;;;;24.71;43.64;102014.28;5033186;28;20666;-77
2021/06/26 09:53:58;;;;;;;10.30;7.00;;;;;;;25.52;63.23;102017.81;5031163;28;20174;-81
2021/06/26 09:56:36;;;;;;;0.10;0.10;;;;;;;24.69;43.84;102013.47;5030341;28;20175;-69
2021/06/26 09:59:01;;;;;;;0.10;0.10;;;;;;;24.02;45.27;102012.06;5031043;28;20174;-69
2021/06/26 10:01:27;;;;;;;5.93;5.33;;;;;;;23.79;46.76;102019.38;5030110;28;20173;-73
2021/06/26 10:03:52;;;;;;;14.83;8.27;;;;;;;23.72;46.79;102018.66;5031196;28;20733;-70
2021/06/26 10:06:20;;;;;;;11.97;8.37;;;;;;;23.61;45.96;102017.09;5031180;28;20182;-69
2021/06/26 10:08:45;;;;;;;9.20;8.07;;;;;;;23.63;46.13;102024.03;5030887;28;20175;-73
2021/06/26 10:11:11;;;;;;;11.03;7.93;;;;;;;23.64;46.24;102019.63;5031075;28;20209;-68
2021/06/26 10:13:37;;;;;;;10.60;7.70;;;;;;;23.66;46.10;102016.09;5031175;28;20175;-68
2021/06/26 10:16:03;;;;;;;8.87;7.40;;;;;;;23.66;46.24;102023.09;5031102;28;20174;-68
2021/06/26 10:18:29;;;;;;;8.30;6.80;;;;;;;23.60;46.31;102021.44;5030543;28;20178;-68
2021/06/26 10:20:55;;;;;;;7.93;7.17;;;;;;;23.54;46.20;102018.94;5030819;28;20202;-68
2021/06/26 10:23:20;;;;;;;8.07;6.93;;;;;;;23.58;46.63;102009.28;5031254;28;20528;-72
2021/06/26 10:25:46;;;;;;;8.13;7.22;;;;;;;23.80;45.99;102011.53;5031610;28;20297;-69
2021/06/26 10:28:16;;;;;;;8.70;7.80;;;;;;;25.08;43.10;102004.78;5030703;28;20420;-72
2021/06/26 10:30:42;;;;;;;8.55;7.63;;;;;;;24.53;44.22;102009.38;5030230;28;20779;-68
2021/06/26 10:33:09;;;;;;;;;;;;;;;24.16;45.29;102010.06;5030913;28;20439;-78
2021/06/26 10:35:36;;;;;;;;;;;;;;;24.52;43.99;102010.28;5032687;28;19913;-67
2021/06/26 10:38:12;;;;;;;;;;;;;;;24.18;44.96;102014.38;5030837;28;20019;-67
2021/06/26 10:41:01;;;;;;;8.50;7.50;;;;;;;24.38;44.17;102009.66;5086866;27;20367;-70
2021/06/26 10:53:40;;;;;;;9.75;8.82;;;;;;;24.05;45.27;102007.66;5086757;27;20428;-73
2021/06/26 10:56:11;;;;;;;9.65;8.75;;;;;;;23.81;45.70;102004.53;5087110;28;20194;-71
2021/06/26 10:58:39;;;;;;;9.35;8.27;;;;;;;23.80;45.95;102006.28;5085863;28;20229;-74
2021/06/26 11:01:14;;;;;;;9.30;8.27;;;;;;;23.83;45.76;102002.75;5085575;28;20204;-75
2021/06/26 11:03:39;;;;;;;;;;;;;;;23.91;45.68;101998.31;5086061;28;20179;-69
2021/06/26 11:06:14;;;;;;;;;;;;;;;23.96;45.79;102005.19;5088496;28;19920;-72
2021/06/26 11:08:39;;;;;;;;;;;;;;;23.99;46.58;102001.66;5101743;28;19919;-71
2021/06/26 11:11:05;;;;;;;;;;;;;;;24.69;45.52;101999.50;5093403;28;20458;-71
2021/06/26 11:13:30;;;;;;;;;;;;;;;24.70;44.38;102004.72;5089313;28;19957;-73
2021/06/26 11:16:06;;;;;;;;;;;;;;;24.56;44.57;102001.47;5087808;28;19919;-73
2021/06/26 11:18:31;;;;;;;;;;;;;;;24.46;44.55;102007.78;5088560;28;19912;-74
2021/06/26 11:20:56;;;;;;;;;;;;;;;24.42;44.60;102007.84;5088613;28;19908;-71
2021/06/26 13:05:30;;;;;;;11.53;10.33;;;;;;;24.28;45.69;101981.06;5105277;27;21096;-76
2021/06/26 13:08:03;;;;;;;14.20;12.80;;;;;;;24.40;45.42;101975.59;5105519;28;20198;-77
2021/06/26 13:10:29;;;;;;;14.10;12.70;;;;;;;24.49;44.82;101971.03;5115280;28;20234;-76
2021/06/26 13:12:54;;;;;;;14.10;12.70;;;;;;;24.44;44.52;101972.88;5068458;28;20429;-73
2021/06/26 13:15:20;;;;;;;11.83;10.50;;;;;;;24.37;44.98;101967.78;5086940;28;20177;-74
2021/06/26 13:17:46;;;;;;;11.07;9.48;;;;;;;24.40;45.04;101967.75;5087126;28;20176;-77